sensor_id;sensor_type;location;lat;lon;timestamp;P1;durP1;ratioP1;P2;durP2;ratioP2
33672;SDS011;20011;51.510;9.942;2023-06-14T00:02:03;4.63;;;2.00;;
33672;SDS011;20011;51.510;9.942;2023-06-14T00:04:31;12.40;;;2.17;;
33672;SDS011;20011;51.510;9.942;2023-06-14T00:06:58;2.17;;;1.95;;
33672;SDS011;20011;51.510;9.942;2023-06-14T00:09:25;2.38;;;1.90;;
33672;SDS011;20011;51.510;9.942;2023-06-14T00:11:55;5.18;;;2.13;;
33672;SDS011;20011;51.510;9.942;2023-06-14T00:14:22;4.45;;;2.40;;
33672;SDS011;20011;51.510;9.942;2023-06-14T00:16:49;6.80;;;2.22;;
33672;SDS011;20011;51.510;9.942;2023-06-14T00:19:18;4.65;;;2.05;;
33672;SDS011;20011;51.510;9.942;2023-06-14T00:21:46;5.63;;;1.83;;
33672;SDS011;20011;51.510;9.942;2023-06-14T00:24:13;7.93;;;2.22;;
33672;SDS011;20011;51.510;9.942;2023-06-14T00:26:40;6.47;;;2.47;;
33672;SDS011;20011;51.510;9.942;2023-06-14T00:29:07;4.10;;;1.77;;
33672;SDS011;20011;51.510;9.942;2023-06-14T00:31:35;6.40;;;2.42;;
33672;SDS011;20011;51.510;9.942;2023-06-14T00:34:02;8.00;;;2.72;;
33672;SDS011;20011;51.510;9.942;2023-06-14T00:36:29;3.78;;;2.15;;
33672;SDS011;20011;51.510;9.942;2023-06-14T00:38:56;3.08;;;2.15;;
33672;SDS011;20011;51.510;9.942;2023-06-14T00:41:23;7.70;;;2.03;;
33672;SDS011;20011;51.510;9.942;2023-06-14T00:43:50;3.75;;;2.20;;
33672;SDS011;20011;51.510;9.942;2023-06-14T00:46:18;3.00;;;2.17;;
33672;SDS011;20011;51.510;9.942;2023-06-14T00:48:46;4.25;;;2.35;;
33672;SDS011;20011;51.510;9.942;2023-06-14T00:51:15;3.13;;;1.90;;
33672;SDS011;20011;51.510;9.942;2023-06-14T00:53:42;3.63;;;2.38;;
33672;SDS011;20011;51.510;9.942;2023-06-14T00:56:13;3.78;;;2.25;;
33672;SDS011;20011;51.510;9.942;2023-06-14T00:58:41;9.98;;;2.63;;
33672;SDS011;20011;51.510;9.942;2023-06-14T01:01:09;4.03;;;2.22;;
33672;SDS011;20011;51.510;9.942;2023-06-14T01:03:37;8.82;;;3.00;;
33672;SDS011;20011;51.510;9.942;2023-06-14T01:06:27;3.88;;;2.65;;
33672;SDS011;20011;51.510;9.942;2023-06-14T01:09:15;10.68;;;2.53;;
33672;SDS011;20011;51.510;9.942;2023-06-14T01:12:09;9.15;;;3.13;;
33672;SDS011;20011;51.510;9.942;2023-06-14T01:14:42;4.63;;;2.60;;
33672;SDS011;20011;51.510;9.942;2023-06-14T01:17:10;6.13;;;2.50;;
33672;SDS011;20011;51.510;9.942;2023-06-14T01:19:43;8.05;;;3.25;;
33672;SDS011;20011;51.510;9.942;2023-06-14T01:22:13;8.30;;;2.70;;
33672;SDS011;20011;51.510;9.942;2023-06-14T01:24:40;10.60;;;2.80;;
33672;SDS011;20011;51.510;9.942;2023-06-14T01:27:11;4.28;;;2.85;;
33672;SDS011;20011;51.510;9.942;2023-06-14T01:29:39;6.45;;;2.72;;
33672;SDS011;20011;51.510;9.942;2023-06-14T01:32:14;7.05;;;2.85;;
33672;SDS011;20011;51.510;9.942;2023-06-14T01:34:41;7.78;;;2.75;;
33672;SDS011;20011;51.510;9.942;2023-06-14T01:37:08;4.95;;;2.38;;
33672;SDS011;20011;51.510;9.942;2023-06-14T01:39:36;3.45;;;2.45;;
33672;SDS011;20011;51.510;9.942;2023-06-14T01:42:04;5.97;;;2.80;;
33672;SDS011;20011;51.510;9.942;2023-06-14T01:44:33;2.75;;;2.15;;
33672;SDS011;20011;51.510;9.942;2023-06-14T01:47:00;5.78;;;3.35;;
33672;SDS011;20011;51.510;9.942;2023-06-14T01:49:27;4.85;;;2.30;;
33672;SDS011;20011;51.510;9.942;2023-06-14T01:51:54;4.30;;;2.05;;
33672;SDS011;20011;51.510;9.942;2023-06-14T01:54:21;3.80;;;2.08;;
33672;SDS011;20011;51.510;9.942;2023-06-14T01:56:49;9.88;;;2.38;;
33672;SDS011;20011;51.510;9.942;2023-06-14T01:59:16;6.63;;;2.40;;
33672;SDS011;20011;51.510;9.942;2023-06-14T02:01:43;2.72;;;2.17;;
33672;SDS011;20011;51.510;9.942;2023-06-14T02:04:12;3.00;;;2.10;;
33672;SDS011;20011;51.510;9.942;2023-06-14T02:06:39;4.25;;;2.50;;
33672;SDS011;20011;51.510;9.942;2023-06-14T02:09:06;6.85;;;2.50;;
33672;SDS011;20011;51.510;9.942;2023-06-14T02:11:33;6.22;;;2.03;;
33672;SDS011;20011;51.510;9.942;2023-06-14T02:14:00;5.35;;;2.03;;
33672;SDS011;20011;51.510;9.942;2023-06-14T02:16:28;3.10;;;2.50;;
33672;SDS011;20011;51.510;9.942;2023-06-14T02:18:56;3.03;;;1.90;;
33672;SDS011;20011;51.510;9.942;2023-06-14T02:21:23;7.60;;;2.13;;
33672;SDS011;20011;51.510;9.942;2023-06-14T02:23:50;9.45;;;2.15;;
33672;SDS011;20011;51.510;9.942;2023-06-14T02:26:17;3.08;;;1.90;;
33672;SDS011;20011;51.510;9.942;2023-06-14T02:28:44;2.60;;;1.80;;
33672;SDS011;20011;51.510;9.942;2023-06-14T02:31:11;6.57;;;2.17;;
33672;SDS011;20011;51.510;9.942;2023-06-14T02:33:38;2.83;;;1.63;;
33672;SDS011;20011;51.510;9.942;2023-06-14T02:36:06;2.90;;;2.25;;
33672;SDS011;20011;51.510;9.942;2023-06-14T02:38:33;10.90;;;2.15;;
33672;SDS011;20011;51.510;9.942;2023-06-14T02:41:00;3.33;;;2.03;;
33672;SDS011;20011;51.510;9.942;2023-06-14T02:43:28;4.93;;;1.88;;
33672;SDS011;20011;51.510;9.942;2023-06-14T02:45:57;3.03;;;1.70;;
33672;SDS011;20011;51.510;9.942;2023-06-14T02:48:24;3.97;;;1.77;;
33672;SDS011;20011;51.510;9.942;2023-06-14T02:50:51;5.35;;;2.10;;
33672;SDS011;20011;51.510;9.942;2023-06-14T02:53:18;3.97;;;1.65;;
33672;SDS011;20011;51.510;9.942;2023-06-14T02:55:45;3.60;;;2.15;;
33672;SDS011;20011;51.510;9.942;2023-06-14T02:58:13;3.88;;;2.05;;
33672;SDS011;20011;51.510;9.942;2023-06-14T03:00:40;2.97;;;1.73;;
33672;SDS011;20011;51.510;9.942;2023-06-14T03:03:09;7.78;;;2.00;;
33672;SDS011;20011;51.510;9.942;2023-06-14T03:05:44;3.35;;;1.90;;
33672;SDS011;20011;51.510;9.942;2023-06-14T03:08:15;2.78;;;2.03;;
33672;SDS011;20011;51.510;9.942;2023-06-14T03:10:46;5.15;;;2.30;;
33672;SDS011;20011;51.510;9.942;2023-06-14T03:13:14;2.92;;;1.80;;
33672;SDS011;20011;51.510;9.942;2023-06-14T03:15:42;3.38;;;1.67;;
33672;SDS011;20011;51.510;9.942;2023-06-14T03:20:41;3.33;;;2.50;;
33672;SDS011;20011;51.510;9.942;2023-06-14T03:23:12;2.92;;;1.95;;
33672;SDS011;20011;51.510;9.942;2023-06-14T03:25:39;2.03;;;1.83;;
33672;SDS011;20011;51.510;9.942;2023-06-14T03:28:10;4.10;;;2.20;;
33672;SDS011;20011;51.510;9.942;2023-06-14T03:30:38;2.95;;;1.98;;
33672;SDS011;20011;51.510;9.942;2023-06-14T03:33:05;3.47;;;2.00;;
33672;SDS011;20011;51.510;9.942;2023-06-14T03:35:36;3.25;;;1.88;;
33672;SDS011;20011;51.510;9.942;2023-06-14T03:38:03;6.40;;;2.22;;
33672;SDS011;20011;51.510;9.942;2023-06-14T03:40:31;4.13;;;1.60;;
33672;SDS011;20011;51.510;9.942;2023-06-14T03:43:02;2.30;;;1.95;;
33672;SDS011;20011;51.510;9.942;2023-06-14T03:45:29;3.95;;;1.88;;
33672;SDS011;20011;51.510;9.942;2023-06-14T03:47:58;8.15;;;1.92;;
33672;SDS011;20011;51.510;9.942;2023-06-14T03:50:29;4.63;;;1.98;;
33672;SDS011;20011;51.510;9.942;2023-06-14T03:52:58;5.90;;;2.25;;
33672;SDS011;20011;51.510;9.942;2023-06-14T03:55:25;4.38;;;2.92;;
33672;SDS011;20011;51.510;9.942;2023-06-14T03:57:58;2.58;;;1.70;;
33672;SDS011;20011;51.510;9.942;2023-06-14T04:00:26;3.00;;;1.80;;
33672;SDS011;20011;51.510;9.942;2023-06-14T04:02:54;6.22;;;1.73;;
33672;SDS011;20011;51.510;9.942;2023-06-14T04:05:21;3.00;;;2.15;;
33672;SDS011;20011;51.510;9.942;2023-06-14T04:07:54;2.88;;;1.73;;
33672;SDS011;20011;51.510;9.942;2023-06-14T04:10:22;6.22;;;2.25;;
33672;SDS011;20011;51.510;9.942;2023-06-14T04:12:49;6.05;;;2.30;;
33672;SDS011;20011;51.510;9.942;2023-06-14T04:15:18;3.67;;;1.90;;
33672;SDS011;20011;51.510;9.942;2023-06-14T04:17:51;2.67;;;1.90;;
33672;SDS011;20011;51.510;9.942;2023-06-14T04:20:20;3.92;;;2.30;;
33672;SDS011;20011;51.510;9.942;2023-06-14T04:22:48;3.33;;;1.67;;
33672;SDS011;20011;51.510;9.942;2023-06-14T04:25:16;3.97;;;1.88;;
33672;SDS011;20011;51.510;9.942;2023-06-14T04:27:50;6.07;;;2.25;;
33672;SDS011;20011;51.510;9.942;2023-06-14T04:30:20;2.80;;;2.10;;
33672;SDS011;20011;51.510;9.942;2023-06-14T04:32:52;2.63;;;1.70;;
33672;SDS011;20011;51.510;9.942;2023-06-14T04:35:23;2.25;;;1.65;;
33672;SDS011;20011;51.510;9.942;2023-06-14T04:37:50;2.95;;;2.03;;
33672;SDS011;20011;51.510;9.942;2023-06-14T04:40:20;2.30;;;1.52;;
33672;SDS011;20011;51.510;9.942;2023-06-14T04:42:48;2.83;;;1.50;;
33672;SDS011;20011;51.510;9.942;2023-06-14T04:45:17;5.82;;;1.73;;
33672;SDS011;20011;51.510;9.942;2023-06-14T04:47:44;2.33;;;1.55;;
33672;SDS011;20011;51.510;9.942;2023-06-14T04:50:13;2.15;;;1.40;;
33672;SDS011;20011;51.510;9.942;2023-06-14T04:52:40;2.67;;;1.88;;
33672;SDS011;20011;51.510;9.942;2023-06-14T04:55:09;3.97;;;1.58;;
33672;SDS011;20011;51.510;9.942;2023-06-14T04:57:36;4.45;;;1.98;;
33672;SDS011;20011;51.510;9.942;2023-06-14T05:00:05;3.78;;;2.08;;
33672;SDS011;20011;51.510;9.942;2023-06-14T05:02:33;2.85;;;1.75;;
33672;SDS011;20011;51.510;9.942;2023-06-14T05:05:02;3.05;;;1.75;;
33672;SDS011;20011;51.510;9.942;2023-06-14T05:07:32;2.85;;;1.83;;
33672;SDS011;20011;51.510;9.942;2023-06-14T05:10:00;4.85;;;1.88;;
33672;SDS011;20011;51.510;9.942;2023-06-14T05:12:27;2.45;;;1.55;;
33672;SDS011;20011;51.510;9.942;2023-06-14T05:14:55;3.97;;;2.22;;
33672;SDS011;20011;51.510;9.942;2023-06-14T05:17:24;4.55;;;1.55;;
33672;SDS011;20011;51.510;9.942;2023-06-14T05:19:55;5.37;;;2.00;;
33672;SDS011;20011;51.510;9.942;2023-06-14T05:22:22;8.95;;;1.98;;
33672;SDS011;20011;51.510;9.942;2023-06-14T05:24:49;2.42;;;1.95;;
33672;SDS011;20011;51.510;9.942;2023-06-14T05:27:16;5.85;;;2.08;;
33672;SDS011;20011;51.510;9.942;2023-06-14T05:29:43;5.72;;;2.08;;
33672;SDS011;20011;51.510;9.942;2023-06-14T05:32:10;6.93;;;1.83;;
33672;SDS011;20011;51.510;9.942;2023-06-14T05:34:37;3.53;;;1.98;;
33672;SDS011;20011;51.510;9.942;2023-06-14T05:37:04;2.78;;;2.15;;
33672;SDS011;20011;51.510;9.942;2023-06-14T05:39:31;4.75;;;2.13;;
33672;SDS011;20011;51.510;9.942;2023-06-14T05:41:58;10.50;;;2.20;;
33672;SDS011;20011;51.510;9.942;2023-06-14T05:44:25;7.35;;;1.63;;
33672;SDS011;20011;51.510;9.942;2023-06-14T05:46:52;3.42;;;2.00;;
33672;SDS011;20011;51.510;9.942;2023-06-14T05:49:19;2.17;;;1.92;;
33672;SDS011;20011;51.510;9.942;2023-06-14T05:51:46;3.65;;;1.98;;
33672;SDS011;20011;51.510;9.942;2023-06-14T05:54:14;5.22;;;2.08;;
33672;SDS011;20011;51.510;9.942;2023-06-14T05:56:41;5.88;;;2.53;;
33672;SDS011;20011;51.510;9.942;2023-06-14T05:59:08;4.05;;;1.92;;
33672;SDS011;20011;51.510;9.942;2023-06-14T06:01:35;4.80;;;1.98;;
33672;SDS011;20011;51.510;9.942;2023-06-14T06:04:03;4.15;;;2.28;;
33672;SDS011;20011;51.510;9.942;2023-06-14T06:06:30;2.78;;;1.73;;
33672;SDS011;20011;51.510;9.942;2023-06-14T06:08:57;3.72;;;2.05;;
33672;SDS011;20011;51.510;9.942;2023-06-14T06:11:24;3.17;;;2.08;;
33672;SDS011;20011;51.510;9.942;2023-06-14T06:13:55;3.40;;;2.10;;
33672;SDS011;20011;51.510;9.942;2023-06-14T06:16:22;8.50;;;2.10;;
33672;SDS011;20011;51.510;9.942;2023-06-14T06:18:49;4.22;;;2.67;;
33672;SDS011;20011;51.510;9.942;2023-06-14T06:21:17;12.40;;;3.25;;
33672;SDS011;20011;51.510;9.942;2023-06-14T06:23:44;11.13;;;2.20;;
33672;SDS011;20011;51.510;9.942;2023-06-14T06:26:11;5.13;;;2.50;;
33672;SDS011;20011;51.510;9.942;2023-06-14T06:28:39;4.75;;;2.80;;
33672;SDS011;20011;51.510;9.942;2023-06-14T06:31:06;7.80;;;2.30;;
33672;SDS011;20011;51.510;9.942;2023-06-14T06:33:33;3.20;;;2.05;;
33672;SDS011;20011;51.510;9.942;2023-06-14T06:36:00;4.88;;;2.30;;
33672;SDS011;20011;51.510;9.942;2023-06-14T06:38:27;3.55;;;2.65;;
33672;SDS011;20011;51.510;9.942;2023-06-14T06:40:53;3.35;;;2.17;;
33672;SDS011;20011;51.510;9.942;2023-06-14T06:43:21;3.75;;;2.10;;
33672;SDS011;20011;51.510;9.942;2023-06-14T06:45:48;3.05;;;2.28;;
33672;SDS011;20011;51.510;9.942;2023-06-14T06:48:16;3.38;;;2.33;;
33672;SDS011;20011;51.510;9.942;2023-06-14T06:50:43;3.40;;;2.38;;
33672;SDS011;20011;51.510;9.942;2023-06-14T06:53:10;5.15;;;2.83;;
33672;SDS011;20011;51.510;9.942;2023-06-14T06:55:38;2.67;;;2.40;;
33672;SDS011;20011;51.510;9.942;2023-06-14T06:58:05;4.75;;;2.80;;
33672;SDS011;20011;51.510;9.942;2023-06-14T07:00:32;9.85;;;2.88;;
33672;SDS011;20011;51.510;9.942;2023-06-14T07:02:59;3.80;;;2.38;;
33672;SDS011;20011;51.510;9.942;2023-06-14T07:05:26;5.15;;;2.90;;
33672;SDS011;20011;51.510;9.942;2023-06-14T07:07:53;5.20;;;2.80;;
33672;SDS011;20011;51.510;9.942;2023-06-14T07:10:23;3.83;;;2.50;;
33672;SDS011;20011;51.510;9.942;2023-06-14T07:12:50;4.47;;;2.90;;
33672;SDS011;20011;51.510;9.942;2023-06-14T07:15:17;4.10;;;2.70;;
33672;SDS011;20011;51.510;9.942;2023-06-14T07:17:44;3.72;;;2.72;;
33672;SDS011;20011;51.510;9.942;2023-06-14T07:20:12;4.75;;;3.00;;
33672;SDS011;20011;51.510;9.942;2023-06-14T07:22:40;4.80;;;2.75;;
33672;SDS011;20011;51.510;9.942;2023-06-14T07:25:09;2.72;;;2.38;;
33672;SDS011;20011;51.510;9.942;2023-06-14T07:27:39;3.70;;;2.60;;
33672;SDS011;20011;51.510;9.942;2023-06-14T07:30:07;3.65;;;2.13;;
33672;SDS011;20011;51.510;9.942;2023-06-14T07:32:35;5.53;;;2.63;;
33672;SDS011;20011;51.510;9.942;2023-06-14T07:35:03;9.50;;;2.63;;
33672;SDS011;20011;51.510;9.942;2023-06-14T07:37:30;5.13;;;2.95;;
33672;SDS011;20011;51.510;9.942;2023-06-14T07:39:57;6.88;;;3.00;;
33672;SDS011;20011;51.510;9.942;2023-06-14T07:42:24;11.88;;;2.53;;
33672;SDS011;20011;51.510;9.942;2023-06-14T07:44:51;3.63;;;2.15;;
33672;SDS011;20011;51.510;9.942;2023-06-14T07:47:19;5.78;;;2.50;;
33672;SDS011;20011;51.510;9.942;2023-06-14T07:49:46;3.33;;;2.70;;
33672;SDS011;20011;51.510;9.942;2023-06-14T07:52:13;7.07;;;2.35;;
33672;SDS011;20011;51.510;9.942;2023-06-14T07:54:40;4.03;;;2.85;;
33672;SDS011;20011;51.510;9.942;2023-06-14T07:57:07;6.95;;;2.67;;
33672;SDS011;20011;51.510;9.942;2023-06-14T07:59:35;9.02;;;3.30;;
33672;SDS011;20011;51.510;9.942;2023-06-14T08:02:02;5.28;;;2.63;;
33672;SDS011;20011;51.510;9.942;2023-06-14T08:04:29;7.30;;;2.38;;
33672;SDS011;20011;51.510;9.942;2023-06-14T08:06:57;6.78;;;2.75;;
33672;SDS011;20011;51.510;9.942;2023-06-14T08:09:25;4.65;;;2.70;;
33672;SDS011;20011;51.510;9.942;2023-06-14T08:11:52;3.08;;;2.58;;
33672;SDS011;20011;51.510;9.942;2023-06-14T08:14:18;5.45;;;2.75;;
33672;SDS011;20011;51.510;9.942;2023-06-14T08:16:46;4.20;;;1.83;;
33672;SDS011;20011;51.510;9.942;2023-06-14T08:19:12;3.50;;;2.50;;
33672;SDS011;20011;51.510;9.942;2023-06-14T08:21:39;3.78;;;2.72;;
33672;SDS011;20011;51.510;9.942;2023-06-14T08:24:07;4.78;;;2.47;;
33672;SDS011;20011;51.510;9.942;2023-06-14T08:26:34;19.27;;;4.20;;
33672;SDS011;20011;51.510;9.942;2023-06-14T08:29:02;3.97;;;2.20;;
33672;SDS011;20011;51.510;9.942;2023-06-14T08:31:29;5.32;;;2.13;;
33672;SDS011;20011;51.510;9.942;2023-06-14T08:33:58;4.43;;;2.30;;
33672;SDS011;20011;51.510;9.942;2023-06-14T08:36:25;2.67;;;2.15;;
33672;SDS011;20011;51.510;9.942;2023-06-14T08:38:52;7.18;;;2.92;;
33672;SDS011;20011;51.510;9.942;2023-06-14T08:41:22;3.58;;;2.58;;
33672;SDS011;20011;51.510;9.942;2023-06-14T08:43:51;4.13;;;2.42;;
33672;SDS011;20011;51.510;9.942;2023-06-14T08:46:19;6.97;;;2.58;;
33672;SDS011;20011;51.510;9.942;2023-06-14T08:48:46;8.70;;;2.90;;
33672;SDS011;20011;51.510;9.942;2023-06-14T08:51:19;15.25;;;2.40;;
33672;SDS011;20011;51.510;9.942;2023-06-14T08:53:52;4.55;;;2.40;;
33672;SDS011;20011;51.510;9.942;2023-06-14T08:56:27;5.55;;;2.58;;
33672;SDS011;20011;51.510;9.942;2023-06-14T08:58:55;4.13;;;2.70;;
33672;SDS011;20011;51.510;9.942;2023-06-14T09:01:27;9.13;;;2.45;;
33672;SDS011;20011;51.510;9.942;2023-06-14T09:03:55;6.13;;;3.30;;
33672;SDS011;20011;51.510;9.942;2023-06-14T09:06:23;5.68;;;2.70;;
33672;SDS011;20011;51.510;9.942;2023-06-14T09:08:51;4.82;;;2.40;;
33672;SDS011;20011;51.510;9.942;2023-06-14T09:11:18;2.78;;;1.90;;
33672;SDS011;20011;51.510;9.942;2023-06-14T09:13:46;3.67;;;2.17;;
33672;SDS011;20011;51.510;9.942;2023-06-14T09:16:16;8.52;;;2.35;;
33672;SDS011;20011;51.510;9.942;2023-06-14T09:18:44;3.92;;;2.28;;
33672;SDS011;20011;51.510;9.942;2023-06-14T09:21:14;3.97;;;2.35;;
33672;SDS011;20011;51.510;9.942;2023-06-14T09:23:43;6.90;;;2.60;;
33672;SDS011;20011;51.510;9.942;2023-06-14T09:26:12;7.57;;;2.13;;
33672;SDS011;20011;51.510;9.942;2023-06-14T09:28:42;2.90;;;1.75;;
33672;SDS011;20011;51.510;9.942;2023-06-14T09:31:13;4.45;;;2.45;;
33672;SDS011;20011;51.510;9.942;2023-06-14T09:33:42;3.85;;;2.60;;
33672;SDS011;20011;51.510;9.942;2023-06-14T09:36:21;3.45;;;2.40;;
33672;SDS011;20011;51.510;9.942;2023-06-14T09:38:51;12.38;;;2.47;;
33672;SDS011;20011;51.510;9.942;2023-06-14T09:41:20;4.22;;;2.25;;
33672;SDS011;20011;51.510;9.942;2023-06-14T09:43:47;3.92;;;2.20;;
33672;SDS011;20011;51.510;9.942;2023-06-14T09:46:16;5.95;;;2.40;;
33672;SDS011;20011;51.510;9.942;2023-06-14T09:48:43;4.95;;;2.22;;
33672;SDS011;20011;51.510;9.942;2023-06-14T09:51:11;6.82;;;2.40;;
33672;SDS011;20011;51.510;9.942;2023-06-14T09:53:41;3.10;;;2.13;;
33672;SDS011;20011;51.510;9.942;2023-06-14T09:56:10;2.65;;;1.70;;
33672;SDS011;20011;51.510;9.942;2023-06-14T09:58:38;3.15;;;2.30;;
33672;SDS011;20011;51.510;9.942;2023-06-14T10:01:07;3.00;;;2.13;;
33672;SDS011;20011;51.510;9.942;2023-06-14T10:03:35;8.43;;;2.47;;
33672;SDS011;20011;51.510;9.942;2023-06-14T10:06:24;5.65;;;2.70;;
33672;SDS011;20011;51.510;9.942;2023-06-14T10:08:53;7.28;;;2.33;;
33672;SDS011;20011;51.510;9.942;2023-06-14T10:11:26;8.00;;;2.38;;
33672;SDS011;20011;51.510;9.942;2023-06-14T10:13:57;7.55;;;2.38;;
33672;SDS011;20011;51.510;9.942;2023-06-14T10:16:35;4.53;;;2.65;;
33672;SDS011;20011;51.510;9.942;2023-06-14T10:24:33;3.65;;;2.17;;
33672;SDS011;20011;51.510;9.942;2023-06-14T10:27:06;2.28;;;2.03;;
33672;SDS011;20011;51.510;9.942;2023-06-14T10:32:27;7.10;;;2.40;;
33672;SDS011;20011;51.510;9.942;2023-06-14T10:34:56;5.72;;;2.00;;
33672;SDS011;20011;51.510;9.942;2023-06-14T10:37:23;5.90;;;2.40;;
33672;SDS011;20011;51.510;9.942;2023-06-14T10:39:51;4.65;;;2.10;;
33672;SDS011;20011;51.510;9.942;2023-06-14T10:42:19;6.55;;;2.47;;
33672;SDS011;20011;51.510;9.942;2023-06-14T10:44:49;6.35;;;2.00;;
33672;SDS011;20011;51.510;9.942;2023-06-14T10:47:23;5.20;;;2.38;;
33672;SDS011;20011;51.510;9.942;2023-06-14T10:50:10;6.63;;;2.72;;
33672;SDS011;20011;51.510;9.942;2023-06-14T10:52:42;3.13;;;2.15;;
33672;SDS011;20011;51.510;9.942;2023-06-14T10:55:18;4.90;;;2.25;;
33672;SDS011;20011;51.510;9.942;2023-06-14T11:00:22;7.28;;;2.08;;
33672;SDS011;20011;51.510;9.942;2023-06-14T11:11:01;4.70;;;2.33;;
33672;SDS011;20011;51.510;9.942;2023-06-14T11:13:39;2.83;;;1.98;;
33672;SDS011;20011;51.510;9.942;2023-06-14T11:16:14;2.05;;;1.67;;
33672;SDS011;20011;51.510;9.942;2023-06-14T11:18:43;3.22;;;2.30;;
33672;SDS011;20011;51.510;9.942;2023-06-14T11:21:11;6.47;;;2.35;;
33672;SDS011;20011;51.510;9.942;2023-06-14T11:23:41;3.00;;;2.20;;
33672;SDS011;20011;51.510;9.942;2023-06-14T11:26:09;2.78;;;2.00;;
33672;SDS011;20011;51.510;9.942;2023-06-14T11:28:39;2.92;;;2.05;;
33672;SDS011;20011;51.510;9.942;2023-06-14T11:31:07;8.27;;;2.35;;
33672;SDS011;20011;51.510;9.942;2023-06-14T11:33:36;3.70;;;2.13;;
33672;SDS011;20011;51.510;9.942;2023-06-14T11:36:03;7.63;;;2.13;;
33672;SDS011;20011;51.510;9.942;2023-06-14T11:38:35;4.82;;;1.95;;
33672;SDS011;20011;51.510;9.942;2023-06-14T11:41:03;2.35;;;1.90;;
33672;SDS011;20011;51.510;9.942;2023-06-14T11:43:31;10.32;;;1.80;;
33672;SDS011;20011;51.510;9.942;2023-06-14T11:46:00;5.00;;;2.00;;
33672;SDS011;20011;51.510;9.942;2023-06-14T11:48:36;2.90;;;1.83;;
33672;SDS011;20011;51.510;9.942;2023-06-14T11:51:05;3.03;;;1.70;;
33672;SDS011;20011;51.510;9.942;2023-06-14T11:53:32;2.28;;;1.45;;
33672;SDS011;20011;51.510;9.942;2023-06-14T11:55:59;5.82;;;2.00;;
33672;SDS011;20011;51.510;9.942;2023-06-14T11:58:28;2.35;;;1.95;;
33672;SDS011;20011;51.510;9.942;2023-06-14T12:00:56;2.55;;;1.98;;
33672;SDS011;20011;51.510;9.942;2023-06-14T12:03:24;5.68;;;1.65;;
33672;SDS011;20011;51.510;9.942;2023-06-14T12:06:06;3.63;;;1.73;;
33672;SDS011;20011;51.510;9.942;2023-06-14T12:08:38;1.95;;;1.50;;
33672;SDS011;20011;51.510;9.942;2023-06-14T12:11:12;3.33;;;1.42;;
33672;SDS011;20011;51.510;9.942;2023-06-14T12:13:43;3.05;;;1.65;;
33672;SDS011;20011;51.510;9.942;2023-06-14T12:18:39;1.83;;;1.40;;
33672;SDS011;20011;51.510;9.942;2023-06-14T12:21:07;5.13;;;1.67;;
33672;SDS011;20011;51.510;9.942;2023-06-14T12:23:46;2.92;;;1.77;;
33672;SDS011;20011;51.510;9.942;2023-06-14T12:26:15;4.30;;;2.00;;
33672;SDS011;20011;51.510;9.942;2023-06-14T12:28:46;1.88;;;1.45;;
33672;SDS011;20011;51.510;9.942;2023-06-14T12:31:15;4.88;;;1.55;;
33672;SDS011;20011;51.510;9.942;2023-06-14T12:33:43;3.50;;;1.92;;
33672;SDS011;20011;51.510;9.942;2023-06-14T12:36:12;3.08;;;1.60;;
33672;SDS011;20011;51.510;9.942;2023-06-14T12:38:39;4.53;;;1.60;;
33672;SDS011;20011;51.510;9.942;2023-06-14T12:41:06;1.80;;;1.70;;
33672;SDS011;20011;51.510;9.942;2023-06-14T12:43:34;3.40;;;1.70;;
33672;SDS011;20011;51.510;9.942;2023-06-14T12:46:01;4.88;;;1.50;;
33672;SDS011;20011;51.510;9.942;2023-06-14T12:48:28;16.33;;;2.00;;
33672;SDS011;20011;51.510;9.942;2023-06-14T12:50:57;5.35;;;2.03;;
33672;SDS011;20011;51.510;9.942;2023-06-14T12:53:25;5.38;;;1.85;;
33672;SDS011;20011;51.510;9.942;2023-06-14T12:55:52;2.15;;;1.95;;
33672;SDS011;20011;51.510;9.942;2023-06-14T12:58:19;2.38;;;1.70;;
33672;SDS011;20011;51.510;9.942;2023-06-14T13:00:46;5.57;;;2.05;;
33672;SDS011;20011;51.510;9.942;2023-06-14T13:03:13;4.28;;;1.80;;
33672;SDS011;20011;51.510;9.942;2023-06-14T13:05:41;2.28;;;1.60;;
33672;SDS011;20011;51.510;9.942;2023-06-14T13:08:10;2.85;;;1.92;;
33672;SDS011;20011;51.510;9.942;2023-06-14T13:10:37;3.90;;;1.63;;
33672;SDS011;20011;51.510;9.942;2023-06-14T13:13:05;3.42;;;1.63;;
33672;SDS011;20011;51.510;9.942;2023-06-14T13:15:34;3.35;;;1.80;;
33672;SDS011;20011;51.510;9.942;2023-06-14T13:18:01;3.70;;;1.98;;
33672;SDS011;20011;51.510;9.942;2023-06-14T13:20:29;3.65;;;1.50;;
33672;SDS011;20011;51.510;9.942;2023-06-14T13:22:56;3.75;;;1.92;;
33672;SDS011;20011;51.510;9.942;2023-06-14T13:25:24;3.88;;;1.73;;
33672;SDS011;20011;51.510;9.942;2023-06-14T13:27:51;1.40;;;1.30;;
33672;SDS011;20011;51.510;9.942;2023-06-14T13:30:18;2.65;;;1.20;;
33672;SDS011;20011;51.510;9.942;2023-06-14T13:32:45;1.50;;;1.40;;
33672;SDS011;20011;51.510;9.942;2023-06-14T13:35:15;2.03;;;1.45;;
33672;SDS011;20011;51.510;9.942;2023-06-14T13:37:42;1.50;;;1.40;;
33672;SDS011;20011;51.510;9.942;2023-06-14T13:40:09;1.58;;;1.20;;
33672;SDS011;20011;51.510;9.942;2023-06-14T13:42:37;4.45;;;1.65;;
33672;SDS011;20011;51.510;9.942;2023-06-14T13:45:04;1.88;;;1.63;;
33672;SDS011;20011;51.510;9.942;2023-06-14T13:47:49;6.32;;;1.52;;
33672;SDS011;20011;51.510;9.942;2023-06-14T13:50:33;1.60;;;1.35;;
33672;SDS011;20011;51.510;9.942;2023-06-14T13:53:18;3.03;;;1.70;;
33672;SDS011;20011;51.510;9.942;2023-06-14T13:56:03;1.80;;;1.60;;
33672;SDS011;20011;51.510;9.942;2023-06-14T13:58:47;1.95;;;1.33;;
33672;SDS011;20011;51.510;9.942;2023-06-14T14:01:31;3.00;;;1.60;;
33672;SDS011;20011;51.510;9.942;2023-06-14T14:04:16;2.83;;;1.52;;
33672;SDS011;20011;51.510;9.942;2023-06-14T14:07:00;2.55;;;1.75;;
33672;SDS011;20011;51.510;9.942;2023-06-14T14:09:46;3.92;;;1.58;;
33672;SDS011;20011;51.510;9.942;2023-06-14T14:12:31;2.35;;;1.67;;
33672;SDS011;20011;51.510;9.942;2023-06-14T14:15:15;1.77;;;1.50;;
33672;SDS011;20011;51.510;9.942;2023-06-14T14:18:00;3.30;;;1.30;;
33672;SDS011;20011;51.510;9.942;2023-06-14T14:20:47;3.25;;;1.33;;
33672;SDS011;20011;51.510;9.942;2023-06-14T14:23:32;1.83;;;1.58;;
33672;SDS011;20011;51.510;9.942;2023-06-14T14:26:17;2.75;;;1.70;;
33672;SDS011;20011;51.510;9.942;2023-06-14T14:29:02;1.80;;;1.35;;
33672;SDS011;20011;51.510;9.942;2023-06-14T14:31:29;1.50;;;1.40;;
33672;SDS011;20011;51.510;9.942;2023-06-14T14:33:56;8.45;;;1.48;;
33672;SDS011;20011;51.510;9.942;2023-06-14T14:36:23;1.88;;;1.73;;
33672;SDS011;20011;51.510;9.942;2023-06-14T14:38:50;4.60;;;1.30;;
33672;SDS011;20011;51.510;9.942;2023-06-14T14:41:18;1.75;;;1.42;;
33672;SDS011;20011;51.510;9.942;2023-06-14T14:43:45;4.43;;;1.35;;
33672;SDS011;20011;51.510;9.942;2023-06-14T14:46:12;3.17;;;1.40;;
33672;SDS011;20011;51.510;9.942;2023-06-14T14:48:39;6.85;;;2.10;;
33672;SDS011;20011;51.510;9.942;2023-06-14T14:51:06;5.32;;;1.92;;
33672;SDS011;20011;51.510;9.942;2023-06-14T14:53:33;1.70;;;1.30;;
33672;SDS011;20011;51.510;9.942;2023-06-14T14:56:00;5.40;;;1.83;;
33672;SDS011;20011;51.510;9.942;2023-06-14T14:58:26;3.83;;;1.60;;
33672;SDS011;20011;51.510;9.942;2023-06-14T15:00:53;1.70;;;1.60;;
33672;SDS011;20011;51.510;9.942;2023-06-14T15:03:21;4.00;;;1.45;;
33672;SDS011;20011;51.510;9.942;2023-06-14T15:05:48;2.78;;;1.42;;
33672;SDS011;20011;51.510;9.942;2023-06-14T15:08:16;3.60;;;1.67;;
33672;SDS011;20011;51.510;9.942;2023-06-14T15:10:43;2.67;;;1.48;;
33672;SDS011;20011;51.510;9.942;2023-06-14T15:13:11;4.22;;;1.40;;
33672;SDS011;20011;51.510;9.942;2023-06-14T15:15:38;2.72;;;1.40;;
33672;SDS011;20011;51.510;9.942;2023-06-14T15:18:05;1.73;;;1.52;;
33672;SDS011;20011;51.510;9.942;2023-06-14T15:20:32;2.92;;;1.33;;
33672;SDS011;20011;51.510;9.942;2023-06-14T15:22:59;2.75;;;1.75;;
33672;SDS011;20011;51.510;9.942;2023-06-14T15:25:26;2.92;;;1.77;;